Accueil
METAR-TAF:

METAR-TAF

Aéroports :

Norwich, Angleterre

Aéroport international de Norwich

latitude: 52-38N, longitude: 001-18E, altitude: 14 m

Observation

Le bulletin a été fait il y a 29 minutes, à 09:50 UTC
Vent 8 kt de est, variant entre est/nord-est et sud-est
Température 3°C
Humidité 75%
Pression 1026 hPa
Visibilité: 8000 m
Nuages fragmentés à une hauteur de 3100 ft

METAR: EGSH 220950Z 10008KT 070V140 8000 BKN031 03/M01 Q1026 NOSIG

Heure: 10:19 (10:19 UTC)

Prévision

Le bulletin a été fait il y a 2 heures et 15 minutes, à 08:04 UTC
Prévision valable du 22 à 09 UTC au 22 à 18 UTC
Vent 5 kt de est/nord-est
Visibilité: 7000 m
Quelques nuages à une hauteur de 4000 ft
Evoluant progressivement
du 22 à 09 UTC au 22 à 11 UTC
Visibilité 10 km ou plus

TAF: EGSH 220804Z 2209/2218 07005KT 7000 FEW040 BECMG 2209/2211 9999

Observations et prévisions météorologiques de plus de 4000 aéroports (messages METAR et TAF).

Les stations disponibles sont représentées par des disques jaunes et rouges sur la carte.

Passer la souris dessus pour voir le nom de la station.

Cliquer dessus pour voir les observations et prévisions météorologiques.

Pour changer de carte: cliquez sur les boutons verts avec une croix noire pour zoomer, sur le bouton vert avec un tiret pour effectuer un zoom arrière, ou sur les flèches vertes pour les cartes adjacentes.


METAR-TAF: